Ben Bolt, TX

10:51 PM CDT on April 27, 2015 (GMT -0500)
Alice International | | Change Station
CLOSE
Current Station
Airport
Location: Alice,
Elevation: 177 ft
Nearby Weather Stations

Elev 177 ft 27.74 °N, 98.03 °W | Updated 58 minutes ago

Clear
Clear
74 °F
Feels Like 74 °F
N
6
Wind Variable Wind from NNW

Today
High -- | Low -- °F
--% Chance of Precip.
Yesterday
High -- | Low -- °F
Precip. -- in
6:56 AM 8:03 PM
Waxing Gibbous, 70% visible
Pressure 29.71 in
Visibility 10.0 miles
Clouds Clear
Dew Point 62 °F
Humidity 66%
Rainfall 0.00 in
Snow Depth Not available.
UV 0 out of 12
Pollen 8.00 out of 12
Air Quality Not available.
Flu Activity Local Activity
METAR KALI 280253Z AUTO 34005KT 10SM CLR 23/17 A2971 RMK AO2 SLP059 T02330167 51027

More Conditions Fewer Conditions

Pressure 29.71 in
Visibility 10.0 miles
Clouds Clear
Dew Point 62 °F
Humidity 66%
Rainfall 0.00 in
Snow Depth Not available.
UV 0 out of 12
Pollen 8.00 out of 12
Air Quality Not available.
Flu Activity Local Activity
METAR KALI 280253Z AUTO 34005KT 10SM CLR 23/17 A2971 RMK AO2 SLP059 T02330167 51027

More Conditions Fewer Conditions

10-Day Weather Forecast

Almanac

Astronomy

Apr. 27, 2015 Rise Set
Actual Time
Civil Twilight
Nautical Twilight
Astronomical Twilight
Moon
Length of Visible Light
Length of Day
Tomorrow will be .
, % of the Moon is Illuminated

Today's Extremes

State Highs State Lows

Community

WunderPhotos

Upload Photos

1,817,557 photos uploaded!

WunderBlogs® & News

Nearby

Air Quality

  Air Quality AQ Index Pollutant
Not available.

Snow Depth

Station Depth Elevation

Earthquake Activity

City Distance Mag. Time & Date
Minimum magnitude displayed is 2.5.

Coastal Water Temperatures

Place Temperature

Stations

Nearby Weather Stations

Station Location Temp. Windchill Dew Point Humidity Wind Precip. Elev Updated Type